臺北終端管制區 - 桃園北區雷達席

METAR RCTP 231930Z 16004KT 9999 FEW020 19/17 Q1020 NOSIG RMK A3014=

站台狀態:Offline
最後更新:2020-02-24 03:30:02